sensor_id;sensor_type;location;lat;lon;timestamp;pressure;altitude;pressure_sealevel;temperature;humidity
46534;BME280;32260;52.008;4.752;2023-02-10T00:01:03;103672.94;;;3.27;72.90
46534;BME280;32260;52.008;4.752;2023-02-10T00:03:30;103672.28;;;3.31;72.42
46534;BME280;32260;52.008;4.752;2023-02-10T00:05:56;103671.56;;;3.33;71.89
46534;BME280;32260;52.008;4.752;2023-02-10T00:08:22;103672.44;;;3.34;71.95
46534;BME280;32260;52.008;4.752;2023-02-10T00:10:48;103666.38;;;3.35;72.05
46534;BME280;32260;52.008;4.752;2023-02-10T00:13:14;103665.56;;;3.36;71.50
46534;BME280;32260;52.008;4.752;2023-02-10T00:15:41;103654.09;;;3.34;72.36
46534;BME280;32260;52.008;4.752;2023-02-10T00:18:07;103656.72;;;3.34;73.18
46534;BME280;32260;52.008;4.752;2023-02-10T00:20:33;103664.84;;;3.38;72.61
46534;BME280;32260;52.008;4.752;2023-02-10T00:22:59;103668.53;;;3.42;72.85
46534;BME280;32260;52.008;4.752;2023-02-10T00:25:25;103664.28;;;3.44;72.76
46534;BME280;32260;52.008;4.752;2023-02-10T00:27:51;103661.56;;;3.43;73.08
46534;BME280;32260;52.008;4.752;2023-02-10T00:30:17;103664.38;;;3.46;72.20
46534;BME280;32260;52.008;4.752;2023-02-10T00:32:44;103662.56;;;3.45;72.52
46534;BME280;32260;52.008;4.752;2023-02-10T00:35:10;103658.13;;;3.44;72.30
46534;BME280;32260;52.008;4.752;2023-02-10T00:37:36;103655.44;;;3.42;71.89
46534;BME280;32260;52.008;4.752;2023-02-10T00:40:02;103652.72;;;3.40;71.82
46534;BME280;32260;52.008;4.752;2023-02-10T00:42:28;103650.84;;;3.38;72.23
46534;BME280;32260;52.008;4.752;2023-02-10T00:44:54;103649.78;;;3.34;71.97
46534;BME280;32260;52.008;4.752;2023-02-10T00:47:20;103649.50;;;3.30;72.28
46534;BME280;32260;52.008;4.752;2023-02-10T00:49:49;103650.97;;;3.24;72.50
46534;BME280;32260;52.008;4.752;2023-02-10T00:52:15;103650.97;;;3.24;72.30
46534;BME280;32260;52.008;4.752;2023-02-10T00:54:41;103658.75;;;3.23;72.48
46534;BME280;32260;52.008;4.752;2023-02-10T00:57:08;103662.47;;;3.27;72.10
46534;BME280;32260;52.008;4.752;2023-02-10T00:59:34;103663.28;;;3.26;71.90
46534;BME280;32260;52.008;4.752;2023-02-10T01:02:00;103663.91;;;3.21;72.01
46534;BME280;32260;52.008;4.752;2023-02-10T01:04:26;103665.34;;;3.16;71.70
46534;BME280;32260;52.008;4.752;2023-02-10T01:06:52;103657.88;;;3.07;72.15
46534;BME280;32260;52.008;4.752;2023-02-10T01:09:19;103664.66;;;3.04;72.07
46534;BME280;32260;52.008;4.752;2023-02-10T01:11:45;103673.19;;;3.00;71.72
46534;BME280;32260;52.008;4.752;2023-02-10T01:14:11;103664.25;;;2.96;71.86
46534;BME280;32260;52.008;4.752;2023-02-10T01:16:37;103667.66;;;2.95;71.75
46534;BME280;32260;52.008;4.752;2023-02-10T01:19:03;103665.78;;;2.92;71.92
46534;BME280;32260;52.008;4.752;2023-02-10T01:21:30;103669.31;;;2.93;71.79
46534;BME280;32260;52.008;4.752;2023-02-10T01:23:56;103660.47;;;2.91;71.92
46534;BME280;32260;52.008;4.752;2023-02-10T01:26:23;103666.44;;;2.88;71.29
46534;BME280;32260;52.008;4.752;2023-02-10T01:28:49;103676.91;;;2.88;71.85
46534;BME280;32260;52.008;4.752;2023-02-10T01:31:18;103669.19;;;2.91;72.12
46534;BME280;32260;52.008;4.752;2023-02-10T01:33:44;103684.09;;;2.92;72.42
46534;BME280;32260;52.008;4.752;2023-02-10T01:36:14;103679.06;;;2.96;72.19
46534;BME280;32260;52.008;4.752;2023-02-10T01:38:41;103672.75;;;2.92;72.55
46534;BME280;32260;52.008;4.752;2023-02-10T01:41:08;103684.38;;;2.97;72.22
46534;BME280;32260;52.008;4.752;2023-02-10T01:46:40;103683.84;;;3.03;72.42
46534;BME280;32260;52.008;4.752;2023-02-10T01:49:09;103678.75;;;3.06;72.53
46534;BME280;32260;52.008;4.752;2023-02-10T01:51:48;103678.84;;;3.07;72.71
46534;BME280;32260;52.008;4.752;2023-02-10T01:54:20;103691.94;;;3.07;72.11
46534;BME280;32260;52.008;4.752;2023-02-10T01:56:48;103684.66;;;3.02;72.23
46534;BME280;32260;52.008;4.752;2023-02-10T01:59:15;103693.97;;;2.97;71.94
46534;BME280;32260;52.008;4.752;2023-02-10T02:01:41;103687.72;;;2.95;72.06
46534;BME280;32260;52.008;4.752;2023-02-10T02:04:07;103691.16;;;2.94;72.26
46534;BME280;32260;52.008;4.752;2023-02-10T02:06:34;103685.91;;;2.94;72.85
46534;BME280;32260;52.008;4.752;2023-02-10T02:09:01;103685.28;;;2.98;72.92
46534;BME280;32260;52.008;4.752;2023-02-10T02:11:37;103687.28;;;3.02;72.97
46534;BME280;32260;52.008;4.752;2023-02-10T02:17:39;103680.88;;;2.97;72.27
46534;BME280;32260;52.008;4.752;2023-02-10T02:22:52;103676.38;;;2.94;72.08
46534;BME280;32260;52.008;4.752;2023-02-10T02:28:57;103680.16;;;2.84;71.93
46534;BME280;32260;52.008;4.752;2023-02-10T02:37:23;103692.44;;;2.55;71.83
46534;BME280;32260;52.008;4.752;2023-02-10T02:39:52;103700.63;;;2.47;71.74
46534;BME280;32260;52.008;4.752;2023-02-10T02:51:09;103713.53;;;2.29;71.84
46534;BME280;32260;52.008;4.752;2023-02-10T02:56:29;103719.19;;;2.21;71.51
46534;BME280;32260;52.008;4.752;2023-02-10T02:59:36;103716.41;;;2.18;71.63
46534;BME280;32260;52.008;4.752;2023-02-10T03:01:55;103715.31;;;2.15;71.99
46534;BME280;32260;52.008;4.752;2023-02-10T03:04:22;103717.22;;;2.17;71.90
46534;BME280;32260;52.008;4.752;2023-02-10T03:06:49;103708.34;;;2.15;72.21
46534;BME280;32260;52.008;4.752;2023-02-10T03:09:16;103713.16;;;2.22;72.26
46534;BME280;32260;52.008;4.752;2023-02-10T03:11:43;103709.09;;;2.28;72.05
46534;BME280;32260;52.008;4.752;2023-02-10T03:14:09;103710.91;;;2.29;72.76
46534;BME280;32260;52.008;4.752;2023-02-10T03:16:35;103718.13;;;2.33;73.10
46534;BME280;32260;52.008;4.752;2023-02-10T03:19:01;103712.47;;;2.40;72.47
46534;BME280;32260;52.008;4.752;2023-02-10T03:21:28;103719.50;;;2.41;73.04
46534;BME280;32260;52.008;4.752;2023-02-10T03:23:54;103716.25;;;2.45;73.32
46534;BME280;32260;52.008;4.752;2023-02-10T03:26:20;103718.97;;;2.47;72.96
46534;BME280;32260;52.008;4.752;2023-02-10T03:28:46;103715.53;;;2.48;72.66
46534;BME280;32260;52.008;4.752;2023-02-10T03:31:12;103722.78;;;2.52;72.57
46534;BME280;32260;52.008;4.752;2023-02-10T03:33:38;103719.25;;;2.51;72.58
46534;BME280;32260;52.008;4.752;2023-02-10T03:36:05;103721.06;;;2.52;72.87
46534;BME280;32260;52.008;4.752;2023-02-10T03:38:31;103725.50;;;2.53;73.10
46534;BME280;32260;52.008;4.752;2023-02-10T03:40:57;103721.06;;;2.52;72.97
46534;BME280;32260;52.008;4.752;2023-02-10T03:43:24;103714.00;;;2.51;73.02
46534;BME280;32260;52.008;4.752;2023-02-10T03:45:50;103715.75;;;2.51;72.95
46534;BME280;32260;52.008;4.752;2023-02-10T03:48:16;103721.78;;;2.50;72.52
46534;BME280;32260;52.008;4.752;2023-02-10T03:50:42;103723.47;;;2.49;72.66
46534;BME280;32260;52.008;4.752;2023-02-10T03:53:09;103718.06;;;2.46;72.50
46534;BME280;32260;52.008;4.752;2023-02-10T03:55:35;103716.25;;;2.45;72.44
46534;BME280;32260;52.008;4.752;2023-02-10T03:58:01;103716.19;;;2.43;72.38
46534;BME280;32260;52.008;4.752;2023-02-10T04:00:28;103700.28;;;2.40;72.30
46534;BME280;32260;52.008;4.752;2023-02-10T04:02:55;103707.06;;;2.37;72.46
46534;BME280;32260;52.008;4.752;2023-02-10T04:05:21;103708.69;;;2.35;72.47
46534;BME280;32260;52.008;4.752;2023-02-10T04:07:50;103714.53;;;2.31;72.45
46534;BME280;32260;52.008;4.752;2023-02-10T04:10:16;103719.41;;;2.24;72.66
46534;BME280;32260;52.008;4.752;2023-02-10T04:12:42;103727.06;;;2.21;72.61
46534;BME280;32260;52.008;4.752;2023-02-10T04:15:08;103723.44;;;2.19;72.68
46534;BME280;32260;52.008;4.752;2023-02-10T04:17:35;103725.06;;;2.17;72.38
46534;BME280;32260;52.008;4.752;2023-02-10T04:20:01;103720.34;;;2.12;72.98
46534;BME280;32260;52.008;4.752;2023-02-10T04:22:27;103726.88;;;2.18;72.67
46534;BME280;32260;52.008;4.752;2023-02-10T04:24:53;103724.34;;;2.20;72.40
46534;BME280;32260;52.008;4.752;2023-02-10T04:27:19;103720.22;;;2.23;73.08
46534;BME280;32260;52.008;4.752;2023-02-10T04:29:46;103727.44;;;2.28;72.87
46534;BME280;32260;52.008;4.752;2023-02-10T04:32:12;103735.56;;;2.32;72.78
46534;BME280;32260;52.008;4.752;2023-02-10T04:34:38;103733.03;;;2.34;73.04
46534;BME280;32260;52.008;4.752;2023-02-10T04:37:04;103733.84;;;2.33;73.44
46534;BME280;32260;52.008;4.752;2023-02-10T04:39:30;103728.81;;;2.36;72.89
46534;BME280;32260;52.008;4.752;2023-02-10T04:41:56;103728.81;;;2.36;72.80
46534;BME280;32260;52.008;4.752;2023-02-10T04:44:22;103724.53;;;2.38;73.26
46534;BME280;32260;52.008;4.752;2023-02-10T04:46:48;103713.09;;;2.36;73.75
46534;BME280;32260;52.008;4.752;2023-02-10T04:49:16;103715.16;;;2.41;73.56
46534;BME280;32260;52.008;4.752;2023-02-10T04:51:42;103715.28;;;2.43;73.58
46534;BME280;32260;52.008;4.752;2023-02-10T04:54:08;103711.84;;;2.44;73.79
46534;BME280;32260;52.008;4.752;2023-02-10T04:56:34;103718.97;;;2.47;73.41
46534;BME280;32260;52.008;4.752;2023-02-10T04:59:00;103720.53;;;2.43;73.57
46534;BME280;32260;52.008;4.752;2023-02-10T05:01:26;103712.75;;;2.45;73.32
46534;BME280;32260;52.008;4.752;2023-02-10T05:03:52;103720.53;;;2.43;73.68
46534;BME280;32260;52.008;4.752;2023-02-10T05:06:18;103712.66;;;2.43;73.51
46534;BME280;32260;52.008;4.752;2023-02-10T05:08:44;103712.47;;;2.40;73.24
46534;BME280;32260;52.008;4.752;2023-02-10T05:11:12;103709.94;;;2.41;72.99
46534;BME280;32260;52.008;4.752;2023-02-10T05:13:39;103712.47;;;2.40;73.19
46534;BME280;32260;52.008;4.752;2023-02-10T05:16:07;103713.28;;;2.39;73.43
46534;BME280;32260;52.008;4.752;2023-02-10T05:18:34;103721.13;;;2.39;72.81
46534;BME280;32260;52.008;4.752;2023-02-10T05:21:01;103724.53;;;2.38;73.44
46534;BME280;32260;52.008;4.752;2023-02-10T05:23:28;103723.56;;;2.36;73.41
46534;BME280;32260;52.008;4.752;2023-02-10T05:25:55;103717.34;;;2.34;72.99
46534;BME280;32260;52.008;4.752;2023-02-10T05:28:21;103718.84;;;2.30;72.88
46534;BME280;32260;52.008;4.752;2023-02-10T05:30:48;103712.81;;;2.31;73.17
46534;BME280;32260;52.008;4.752;2023-02-10T05:33:14;103711.94;;;2.31;73.24
46534;BME280;32260;52.008;4.752;2023-02-10T05:35:40;103720.59;;;2.30;73.57
46534;BME280;32260;52.008;4.752;2023-02-10T05:38:07;103724.16;;;2.32;73.28
46534;BME280;32260;52.008;4.752;2023-02-10T05:40:33;103732.13;;;2.33;73.38
46534;BME280;32260;52.008;4.752;2023-02-10T05:42:59;103730.41;;;2.34;73.55
46534;BME280;32260;52.008;4.752;2023-02-10T05:45:25;103717.34;;;2.34;73.52
46534;BME280;32260;52.008;4.752;2023-02-10T05:47:51;103706.88;;;2.34;73.40
46534;BME280;32260;52.008;4.752;2023-02-10T05:50:18;103705.78;;;2.30;73.58
46534;BME280;32260;52.008;4.752;2023-02-10T05:52:44;103704.69;;;2.26;73.29
46534;BME280;32260;52.008;4.752;2023-02-10T05:55:10;103704.44;;;2.22;73.49
46534;BME280;32260;52.008;4.752;2023-02-10T05:57:36;103700.50;;;2.15;73.77
46534;BME280;32260;52.008;4.752;2023-02-10T06:00:04;103703.75;;;2.11;73.64
46534;BME280;32260;52.008;4.752;2023-02-10T06:02:31;103703.75;;;2.11;73.59
46534;BME280;32260;52.008;4.752;2023-02-10T06:04:57;103701.78;;;2.07;73.38
46534;BME280;32260;52.008;4.752;2023-02-10T06:07:23;103712.25;;;2.07;73.36
46534;BME280;32260;52.008;4.752;2023-02-10T06:09:49;103719.78;;;2.02;73.39
46534;BME280;32260;52.008;4.752;2023-02-10T06:12:15;103737.31;;;2.03;73.28
46534;BME280;32260;52.008;4.752;2023-02-10T06:14:41;103744.13;;;2.01;73.57
46534;BME280;32260;52.008;4.752;2023-02-10T06:17:07;103729.16;;;1.99;73.71
46534;BME280;32260;52.008;4.752;2023-02-10T06:19:36;103727.34;;;1.98;73.67
46534;BME280;32260;52.008;4.752;2023-02-10T06:22:02;103737.00;;;1.99;73.66
46534;BME280;32260;52.008;4.752;2023-02-10T06:24:28;103738.59;;;1.97;73.63
46534;BME280;32260;52.008;4.752;2023-02-10T06:26:54;103745.56;;;1.96;73.62
46534;BME280;32260;52.008;4.752;2023-02-10T06:29:21;103737.81;;;1.98;73.50
46534;BME280;32260;52.008;4.752;2023-02-10T06:31:47;103743.66;;;1.93;73.53
46534;BME280;32260;52.008;4.752;2023-02-10T06:34:13;103753.91;;;1.90;73.60
46534;BME280;32260;52.008;4.752;2023-02-10T06:36:39;103765.00;;;1.86;73.37
46534;BME280;32260;52.008;4.752;2023-02-10T06:39:05;103764.91;;;1.85;73.70
46534;BME280;32260;52.008;4.752;2023-02-10T06:41:32;103763.81;;;1.81;73.29
46534;BME280;32260;52.008;4.752;2023-02-10T06:43:58;103755.56;;;1.75;73.65
46534;BME280;32260;52.008;4.752;2023-02-10T06:46:25;103762.63;;;1.76;73.66
46534;BME280;32260;52.008;4.752;2023-02-10T06:48:51;103758.38;;;1.78;73.30
46534;BME280;32260;52.008;4.752;2023-02-10T06:51:17;103768.03;;;1.79;73.37
46534;BME280;32260;52.008;4.752;2023-02-10T06:53:43;103759.22;;;1.77;73.76
46534;BME280;32260;52.008;4.752;2023-02-10T06:56:11;103762.78;;;1.79;73.56
46534;BME280;32260;52.008;4.752;2023-02-10T06:58:37;103755.97;;;1.81;73.39
46534;BME280;32260;52.008;4.752;2023-02-10T07:01:08;103748.13;;;1.81;73.60
46534;BME280;32260;52.008;4.752;2023-02-10T07:03:35;103742.69;;;1.78;73.57
46534;BME280;32260;52.008;4.752;2023-02-10T07:06:01;103740.28;;;1.81;73.76
46534;BME280;32260;52.008;4.752;2023-02-10T07:08:27;103741.09;;;1.80;73.55
46534;BME280;32260;52.008;4.752;2023-02-10T07:10:53;103740.28;;;1.81;73.64
46534;BME280;32260;52.008;4.752;2023-02-10T07:13:19;103737.47;;;1.78;73.52
46534;BME280;32260;52.008;4.752;2023-02-10T07:15:46;103748.13;;;1.81;73.93
46534;BME280;32260;52.008;4.752;2023-02-10T07:18:12;103750.91;;;1.84;73.67
46534;BME280;32260;52.008;4.752;2023-02-10T07:20:38;103752.72;;;1.85;73.47
46534;BME280;32260;52.008;4.752;2023-02-10T07:23:07;103761.38;;;1.84;73.43
46534;BME280;32260;52.008;4.752;2023-02-10T07:25:33;103762.28;;;1.85;73.67
46534;BME280;32260;52.008;4.752;2023-02-10T07:27:59;103769.13;;;1.83;73.50
46534;BME280;32260;52.008;4.752;2023-02-10T07:30:25;103773.66;;;1.85;73.53
46534;BME280;32260;52.008;4.752;2023-02-10T07:32:51;103786.00;;;1.88;73.63
46534;BME280;32260;52.008;4.752;2023-02-10T07:35:17;103786.22;;;1.91;73.67
46534;BME280;32260;52.008;4.752;2023-02-10T07:37:43;103797.88;;;1.96;73.81
46534;BME280;32260;52.008;4.752;2023-02-10T07:40:17;103797.34;;;2.02;73.68
46534;BME280;32260;52.008;4.752;2023-02-10T07:42:43;103798.75;;;1.97;73.74
46534;BME280;32260;52.008;4.752;2023-02-10T07:45:09;103796.25;;;1.98;73.52
46534;BME280;32260;52.008;4.752;2023-02-10T07:47:36;103796.34;;;2.00;73.82
46534;BME280;32260;52.008;4.752;2023-02-10T07:50:02;103801.66;;;2.01;74.02
46534;BME280;32260;52.008;4.752;2023-02-10T07:52:29;103788.78;;;2.04;74.18
46534;BME280;32260;52.008;4.752;2023-02-10T07:54:55;103789.78;;;2.06;74.00
46534;BME280;32260;52.008;4.752;2023-02-10T07:57:21;103785.75;;;2.12;73.64
46534;BME280;32260;52.008;4.752;2023-02-10T07:59:47;103781.31;;;2.10;73.82
46534;BME280;32260;52.008;4.752;2023-02-10T08:02:13;103792.88;;;2.14;73.80
46534;BME280;32260;52.008;4.752;2023-02-10T08:04:39;103801.44;;;2.12;73.96
46534;BME280;32260;52.008;4.752;2023-02-10T08:07:05;103807.97;;;2.18;73.91
46534;BME280;32260;52.008;4.752;2023-02-10T08:09:32;103813.22;;;2.18;74.04
46534;BME280;32260;52.008;4.752;2023-02-10T08:11:58;103814.19;;;2.20;73.81
46534;BME280;32260;52.008;4.752;2023-02-10T08:14:24;103809.97;;;2.22;73.62
46534;BME280;32260;52.008;4.752;2023-02-10T08:16:50;103807.25;;;2.21;73.57
46534;BME280;32260;52.008;4.752;2023-02-10T08:19:16;103806.34;;;2.20;73.74
46534;BME280;32260;52.008;4.752;2023-02-10T08:21:42;103808.16;;;2.21;73.55
46534;BME280;32260;52.008;4.752;2023-02-10T08:24:08;103808.22;;;2.23;73.69
46534;BME280;32260;52.008;4.752;2023-02-10T08:26:35;103812.75;;;2.25;73.78
46534;BME280;32260;52.008;4.752;2023-02-10T08:29:01;103811.94;;;2.26;73.67
46534;BME280;32260;52.008;4.752;2023-02-10T08:31:27;103802.50;;;2.29;73.61
46534;BME280;32260;52.008;4.752;2023-02-10T08:33:53;103811.44;;;2.32;73.76
46534;BME280;32260;52.008;4.752;2023-02-10T08:36:20;103806.13;;;2.31;73.85
46534;BME280;32260;52.008;4.752;2023-02-10T08:38:49;103800.88;;;2.31;73.68
46534;BME280;32260;52.008;4.752;2023-02-10T08:41:15;103809.72;;;2.33;73.87
46534;BME280;32260;52.008;4.752;2023-02-10T08:43:42;103810.72;;;2.35;73.84
46534;BME280;32260;52.008;4.752;2023-02-10T08:46:08;103805.88;;;2.41;73.65
46534;BME280;32260;52.008;4.752;2023-02-10T08:48:35;103804.25;;;2.43;73.62
46534;BME280;32260;52.008;4.752;2023-02-10T08:51:06;103802.81;;;2.48;73.63
46534;BME280;32260;52.008;4.752;2023-02-10T08:53:33;103799.50;;;2.51;73.80
46534;BME280;32260;52.008;4.752;2023-02-10T08:56:02;103795.53;;;2.57;73.63
46534;BME280;32260;52.008;4.752;2023-02-10T08:58:29;103808.69;;;2.59;73.73
46534;BME280;32260;52.008;4.752;2023-02-10T09:00:56;103814.31;;;2.65;73.65
46534;BME280;32260;52.008;4.752;2023-02-10T09:03:22;103815.41;;;2.69;73.56
46534;BME280;32260;52.008;4.752;2023-02-10T09:05:49;103804.19;;;2.71;73.69
46534;BME280;32260;52.008;4.752;2023-02-10T09:08:16;103813.16;;;2.75;73.71
46534;BME280;32260;52.008;4.752;2023-02-10T09:10:44;103818.66;;;2.80;73.32
46534;BME280;32260;52.008;4.752;2023-02-10T09:13:10;103818.13;;;2.85;73.59
46534;BME280;32260;52.008;4.752;2023-02-10T09:15:38;103814.97;;;2.91;73.52
46534;BME280;32260;52.008;4.752;2023-02-10T09:18:05;103815.19;;;2.94;73.47
46534;BME280;32260;52.008;4.752;2023-02-10T09:20:31;103823.38;;;3.00;73.25
46534;BME280;32260;52.008;4.752;2023-02-10T09:22:57;103819.06;;;3.01;73.74
46534;BME280;32260;52.008;4.752;2023-02-10T09:25:23;103819.41;;;3.07;73.63
46534;BME280;32260;52.008;4.752;2023-02-10T09:27:51;103823.13;;;3.11;73.78
46534;BME280;32260;52.008;4.752;2023-02-10T09:30:18;103824.81;;;3.10;73.49
46534;BME280;32260;52.008;4.752;2023-02-10T09:32:44;103830.97;;;3.11;73.69
46534;BME280;32260;52.008;4.752;2023-02-10T09:35:10;103832.69;;;3.10;73.63
46534;BME280;32260;52.008;4.752;2023-02-10T09:37:38;103833.97;;;3.17;73.63
46534;BME280;32260;52.008;4.752;2023-02-10T09:40:13;103839.38;;;3.20;73.47
46534;BME280;32260;52.008;4.752;2023-02-10T09:43:07;103839.19;;;3.32;73.83
46534;BME280;32260;52.008;4.752;2023-02-10T09:45:39;103836.75;;;3.35;73.70
46534;BME280;32260;52.008;4.752;2023-02-10T09:51:03;103819.75;;;3.43;73.47
46534;BME280;32260;52.008;4.752;2023-02-10T09:53:31;103822.28;;;3.42;73.55
46534;BME280;32260;52.008;4.752;2023-02-10T09:56:01;103830.59;;;3.49;73.31
46534;BME280;32260;52.008;4.752;2023-02-10T09:58:35;103830.03;;;3.55;73.53
46534;BME280;32260;52.008;4.752;2023-02-10T10:01:15;103833.72;;;3.59;73.74
46534;BME280;32260;52.008;4.752;2023-02-10T10:03:49;103831.81;;;3.71;73.90
46534;BME280;32260;52.008;4.752;2023-02-10T10:06:28;103817.41;;;3.79;73.77
46534;BME280;32260;52.008;4.752;2023-02-10T10:11:45;103822.34;;;3.89;74.04
46534;BME280;32260;52.008;4.752;2023-02-10T10:14:18;103814.91;;;3.97;73.83
46534;BME280;32260;52.008;4.752;2023-02-10T10:17:05;103823.22;;;4.05;73.60
46534;BME280;32260;52.008;4.752;2023-02-10T10:29:19;103810.19;;;4.40;73.86
46534;BME280;32260;52.008;4.752;2023-02-10T10:33:47;103808.59;;;4.60;73.83
46534;BME280;32260;52.008;4.752;2023-02-10T10:36:17;103807.47;;;4.71;74.22
46534;BME280;32260;52.008;4.752;2023-02-10T10:38:51;103803.00;;;4.86;74.08
46534;BME280;32260;52.008;4.752;2023-02-10T10:41:18;103805.13;;;4.94;73.82
46534;BME280;32260;52.008;4.752;2023-02-10T10:43:48;103799.56;;;5.06;73.76
46534;BME280;32260;52.008;4.752;2023-02-10T10:47:02;103802.88;;;5.19;73.01
46534;BME280;32260;52.008;4.752;2023-02-10T10:49:12;103803.06;;;5.23;72.85
46534;BME280;32260;52.008;4.752;2023-02-10T10:51:38;103804.25;;;5.29;72.60
46534;BME280;32260;52.008;4.752;2023-02-10T10:54:12;103796.91;;;5.40;72.29
46534;BME280;32260;52.008;4.752;2023-02-10T10:59:33;103786.13;;;5.72;72.30
46534;BME280;32260;52.008;4.752;2023-02-10T11:02:12;103795.53;;;5.85;72.08
46534;BME280;32260;52.008;4.752;2023-02-10T11:04:39;103790.69;;;5.94;71.78
46534;BME280;32260;52.008;4.752;2023-02-10T11:07:11;103790.53;;;6.09;71.56
46534;BME280;32260;52.008;4.752;2023-02-10T11:09:41;103791.03;;;6.20;71.54
46534;BME280;32260;52.008;4.752;2023-02-10T11:12:20;103786.16;;;6.29;70.94
46534;BME280;32260;52.008;4.752;2023-02-10T11:14:48;103784.72;;;6.36;70.14
46534;BME280;32260;52.008;4.752;2023-02-10T11:17:36;103787.16;;;6.51;70.34
46534;BME280;32260;52.008;4.752;2023-02-10T11:20:25;103777.81;;;6.59;69.85
46534;BME280;32260;52.008;4.752;2023-02-10T11:23:13;103779.19;;;6.70;70.08
46534;BME280;32260;52.008;4.752;2023-02-10T11:25:40;103774.00;;;6.72;70.16
46534;BME280;32260;52.008;4.752;2023-02-10T11:28:16;103777.59;;;6.74;69.94
46534;BME280;32260;52.008;4.752;2023-02-10T11:30:45;103768.59;;;6.69;69.38
46534;BME280;32260;52.008;4.752;2023-02-10T11:33:22;103764.09;;;6.66;68.48
46534;BME280;32260;52.008;4.752;2023-02-10T11:35:53;103769.25;;;6.63;68.86
46534;BME280;32260;52.008;4.752;2023-02-10T11:38:23;103750.69;;;6.81;68.61
46534;BME280;32260;52.008;4.752;2023-02-10T11:40:55;103761.94;;;6.77;68.74
46534;BME280;32260;52.008;4.752;2023-02-10T11:43:29;103753.25;;;6.79;68.59
46534;BME280;32260;52.008;4.752;2023-02-10T11:45:59;103749.78;;;6.80;68.01
46534;BME280;32260;52.008;4.752;2023-02-10T11:48:27;103760.66;;;6.88;68.14
46534;BME280;32260;52.008;4.752;2023-02-10T11:53:40;103753.88;;;6.95;67.38
46534;BME280;32260;52.008;4.752;2023-02-10T11:56:18;103753.94;;;7.18;67.98
46534;BME280;32260;52.008;4.752;2023-02-10T11:58:58;103744.56;;;7.24;67.91
46534;BME280;32260;52.008;4.752;2023-02-10T12:01:57;103755.72;;;7.40;67.02
46534;BME280;32260;52.008;4.752;2023-02-10T12:04:53;103754.59;;;7.56;66.53
46534;BME280;32260;52.008;4.752;2023-02-10T12:10:21;103729.25;;;7.84;66.59
46534;BME280;32260;52.008;4.752;2023-02-10T12:15:49;103738.41;;;7.93;65.45
46534;BME280;32260;52.008;4.752;2023-02-10T12:21:39;103735.75;;;8.16;65.73
46534;BME280;32260;52.008;4.752;2023-02-10T12:27:01;103737.09;;;8.29;64.93
46534;BME280;32260;52.008;4.752;2023-02-10T12:35:16;103730.75;;;8.74;64.03
46534;BME280;32260;52.008;4.752;2023-02-10T12:41:16;103719.09;;;8.95;63.21
46534;BME280;32260;52.008;4.752;2023-02-10T12:52:59;103702.28;;;9.79;61.69
46534;BME280;32260;52.008;4.752;2023-02-10T12:55:44;103710.38;;;9.84;61.28
46534;BME280;32260;52.008;4.752;2023-02-10T12:58:20;103702.28;;;9.79;61.61
46534;BME280;32260;52.008;4.752;2023-02-10T13:00:51;103695.31;;;9.81;61.74
46534;BME280;32260;52.008;4.752;2023-02-10T13:03:28;103694.69;;;9.90;62.49
46534;BME280;32260;52.008;4.752;2023-02-10T13:06:10;103681.63;;;9.98;62.16
46534;BME280;32260;52.008;4.752;2023-02-10T13:08:43;103692.31;;;9.99;61.62
46534;BME280;32260;52.008;4.752;2023-02-10T13:11:36;103682.63;;;10.01;61.54
46534;BME280;32260;52.008;4.752;2023-02-10T13:14:13;103667.75;;;10.07;62.10
46534;BME280;32260;52.008;4.752;2023-02-10T13:16:40;103663.63;;;10.18;62.01
46534;BME280;32260;52.008;4.752;2023-02-10T13:19:24;103662.28;;;10.32;61.42
46534;BME280;32260;52.008;4.752;2023-02-10T13:22:03;103655.38;;;10.38;60.38
46534;BME280;32260;52.008;4.752;2023-02-10T13:32:48;103658.44;;;10.21;61.25
46534;BME280;32260;52.008;4.752;2023-02-10T13:35:20;103652.53;;;10.31;60.83
46534;BME280;32260;52.008;4.752;2023-02-10T13:37:53;103650.22;;;10.44;60.94
46534;BME280;32260;52.008;4.752;2023-02-10T13:40:25;103636.19;;;10.48;60.80
46534;BME280;32260;52.008;4.752;2023-02-10T13:42:55;103632.94;;;10.58;60.42
46534;BME280;32260;52.008;4.752;2023-02-10T13:45:27;103625.13;;;10.64;60.38
46534;BME280;32260;52.008;4.752;2023-02-10T13:47:57;103634.09;;;10.71;60.54
46534;BME280;32260;52.008;4.752;2023-02-10T13:50:30;103624.31;;;10.67;59.27
46534;BME280;32260;52.008;4.752;2023-02-10T14:00:53;103623.16;;;10.57;59.89
46534;BME280;32260;52.008;4.752;2023-02-10T14:03:24;103628.53;;;10.60;59.67
46534;BME280;32260;52.008;4.752;2023-02-10T14:06:01;103619.69;;;10.60;60.42
46534;BME280;32260;52.008;4.752;2023-02-10T14:08:31;103611.88;;;10.64;60.14
46534;BME280;32260;52.008;4.752;2023-02-10T14:11:03;103618.97;;;10.65;60.26
46534;BME280;32260;52.008;4.752;2023-02-10T14:13:32;103615.41;;;10.65;60.17
46534;BME280;32260;52.008;4.752;2023-02-10T14:16:02;103613.72;;;10.68;60.00
46534;BME280;32260;52.008;4.752;2023-02-10T14:18:35;103607.56;;;10.70;60.48
46534;BME280;32260;52.008;4.752;2023-02-10T14:21:12;103603.91;;;10.64;60.22
46534;BME280;32260;52.008;4.752;2023-02-10T14:23:43;103604.78;;;10.65;60.41
46534;BME280;32260;52.008;4.752;2023-02-10T14:26:18;103608.09;;;10.55;60.33
46534;BME280;32260;52.008;4.752;2023-02-10T14:28:49;103605.41;;;10.53;60.71
46534;BME280;32260;52.008;4.752;2023-02-10T14:31:23;103607.09;;;10.49;60.17
46534;BME280;32260;52.008;4.752;2023-02-10T14:33:54;103606.31;;;10.55;60.95
46534;BME280;32260;52.008;4.752;2023-02-10T14:36:21;103602.91;;;10.59;60.64
46534;BME280;32260;52.008;4.752;2023-02-10T14:38:53;103598.47;;;10.58;60.55
46534;BME280;32260;52.008;4.752;2023-02-10T14:41:21;103588.38;;;10.43;60.42
46534;BME280;32260;52.008;4.752;2023-02-10T14:43:49;103585.06;;;10.52;60.65
46534;BME280;32260;52.008;4.752;2023-02-10T14:46:21;103598.31;;;10.52;60.63
46534;BME280;32260;52.008;4.752;2023-02-10T14:48:48;103593.84;;;10.49;60.69